SLRY  Reyes Airport

Add Bookmark

Reyes, Bolivia

Status IATA
Operational REY
Latitude Longitude
14° 18' 15" S 67° 21' 12" W
-14.304400 -67.353401
Local (DST -4) UTC (GMT -4)
Jan 31, 2015 12:07 Jan 31, 2015 16:07
Sunrise-Sunset Local UTC
Begin Civil Twilight 05:57 09:57
Sunrise 06:20 10:20
Sunset 07:05 23:05
End Civil Twilight 07:28 23:28

Current Weather

METAR Observed VFR
SLRY 311500Z 00000KT 9999 FEW040 BKN080 29/24 Q1016 Sat, Jan 31, 2015 @ 15:00 UTC
(1 Hour, 7 Minutes ago)
Visual Flight Rules
Wind Visibility Clouds Conditions
Calm 10 km or more
  • Few at 4,000' AGL
  • Broken at 8,000' AGL
  • No significant weather
Temperatures Readings Precipitation
Current Temp 29°C (84°F)
Dewpoint 24°C (75°F)
Heat Index 33°C (92°F)
Humidity 74%
Altimeter 30"Hg
Sea Level Pressure 1016mb
Field Elevation 918.64'
None Recorded

Additional weather within a 92.6km radius of SLRY

Map ICAO Location
SLRQ 20.7km S (229°)

24 Hour Weather History

Loading
-

24 Hour Weather Graphs

Loading
-

CheckWX.com is intended as a tool to help pilots better visualize weather data. It is not intended as a substitute for an official weather briefing obtained from a Flight Service Station. CheckWX.com does not meet the FAA requirements for an official pre-flight weather briefing. Therefore, it's important that pilots still call and obtain an official FSS pre-flight weather briefing.